• Join FlightAware (Why Join?)
  • Login
  • US Flag 
12:28AM EDT


 

Airport Tracker/Info


-or-


 

Live Flight TrackerFlight Track Log ✈ UAL4678 ✈ 26-Apr-2013 ✈ KIAH - KMOB

Flight Track Log - Related Links

Times and Time Zones

All times are in EDT time to prevent confusion due to time zone crossing. See the UAL4678 flight status page for this flight to view local times or setup timezone preferences in your user account.

Time Position Orientation Groundspeed Altitude Reporting Facility
EDT Latitude Longitude Course Direction KTS MPH feet Rate Location/Type
01:03PM 29.9661 -95.3456 82° East 150 173 700  Level Houston Center
01:05PM 29.9508 -95.2928 108° East 201 231 2,800 1,740 Climbing Houston Center
01:06PM 29.9519 -95.2169 89° East 224 258 4,500 2,100 Climbing Houston Center
01:07PM 29.9550 -95.1292 88° East 264 304 7,200 2,220 Climbing Houston Center
01:08PM 29.8881 -93.6094 82° East  Level FlightAware Approximate
01:08PM 29.9575 -95.0392 88° East 275 316 9,200  Level Houston Center
01:09PM 29.9038 -93.4765 82° East  Level FlightAware Approximate
01:09PM 29.9572 -94.9406 90° East 298 343 11,000  Level Houston Center
01:10PM 29.9547 -94.8189 91° East 325 374 12,200 840 Climbing Houston Center
01:11PM 29.9500 -94.6886 92° East 370 426 12,800 600 Climbing Houston Center
01:12PM 29.9436 -94.5600 93° East 396 456 13,500 840 Climbing Houston Center
01:13PM 29.9378 -94.4153 93° East 403 464 14,600 900 Climbing Houston Center
01:14PM 29.9706 -94.2928 73° East 405 466 15,400 720 Climbing Houston Center
01:15PM 29.9964 -94.1658 77° East 406 467 16,100 840 Climbing Houston Center
01:16PM 30.0253 -94.0389 75° East 409 471 17,200 840 Climbing Houston Center
01:17PM 30.0536 -93.9144 75° East 405 466 17,900 780 Climbing Houston Center
01:18PM 30.0769 -93.7892 78° East 403 464 18,900 960 Climbing Houston Center
01:19PM 30.0942 -93.6322 83° East 413 475 19,900 900 Climbing Houston Center
01:20PM 30.1064 -93.4992 84° East 421 484 20,800 840 Climbing Houston Center
01:21PM 30.1022 -93.3636 92° East 429 494 21,700 780 Climbing Houston Center
01:22PM 30.0956 -93.2272 93° East 430 495 22,500 900 Climbing Houston Center
01:23PM 30.0878 -93.0625 93° East 432 497 23,600 960 Climbing Houston Center
01:24PM 30.0817 -92.9242 93° East 434 499 24,500 780 Climbing Houston Center
01:25PM 30.0814 -92.7853 90° East 435 501 25,300 780 Climbing Houston Center
01:26PM 30.0978 -92.6464 82° East 439 505 26,200 720 Climbing Houston Center
01:27PM 30.1175 -92.5050 81° East 445 512 26,900 360 Climbing Houston Center
01:28PM 30.1394 -92.3317 82° East 459 528 27,000  Climbing Houston Center
01:29PM 30.1594 -92.1817 81° East 473 544 27,000  Level Houston Center
01:31PM 30.1789 -92.0294 82° East 479 551 27,000  Level Houston Center
01:32PM 30.1958 -91.8744 83° East 487 560 27,000  Level Houston Center
01:33PM 30.2131 -91.7161 83° East 492 566 27,000  Level Houston Center
01:34PM 30.2344 -91.5603 81° East 492 566 27,000  Level Houston Center
01:35PM 30.2600 -91.3733 81° East 491 565 27,000  Level Houston Center
01:36PM 30.2831 -91.2175 80° East 491 565 27,000  Level Houston Center
01:37PM 30.3022 -91.0631 82° East 489 563 27,000  Level Houston Center
01:38PM 30.3228 -90.9069 81° East 490 564 27,000 -60 Level Houston Center
01:39PM 30.3425 -90.7519 82° East 489 563 26,900  Descending Houston Center
01:40PM 30.3642 -90.5956 81° East 492 566 27,000  Climbing Houston Center
01:41PM 30.3911 -90.4092 80° East 492 566 27,000  Level Houston Center
01:42PM 30.4139 -90.2525 80° East 492 566 27,000  Level Houston Center
01:43PM 30.4369 -90.0958 80° East 493 567 27,000 -780 Level Houston Center
01:44PM 30.4606 -89.9386 80° East 491 565 25,400 -1,980 Descending Houston Center
01:45PM 30.4867 -89.7875 79° East 469 540 23,000 -2,400 Descending Houston Center
01:46PM 30.5100 -89.6475 79° East 435 501 20,500 -2,460 Descending Houston Center
01:47PM 30.5367 -89.5103 77° East 433 498 18,000 -2,460 Descending Houston Center
01:48PM 30.5664 -89.3519 78° East 420 483 15,400 -2,220 Descending Houston Center
01:49PM 30.5936 -89.2286 76° East 401 461 13,400 -1,920 Descending Houston Center
01:50PM 30.6211 -89.1072 75° East 393 452 11,500 -1,200 Descending Houston Center
01:51PM 30.6461 -88.9856 77° East 387 445 11,000 -480 Descending Houston Center
01:52PM 30.6642 -88.8825 78° East 351 404 10,600 -780 Descending Houston Center
01:53PM 30.6867 -88.7736 76° East 299 344 9,400 -1,140 Descending Houston Center
01:54PM 30.7017 -88.6781 80° East 299 344 8,300 -1,020 Descending Houston Center
01:55PM 30.7156 -88.5900 80° East 283 326 7,300 -1,020 Descending Houston Center
01:56PM 30.7192 -88.5006 87° East 279 321 6,300 -1,140 Descending Houston Center
01:57PM 30.7342 -88.4164 78° East 270 311 5,000 -1,800 Descending Houston Center
01:58PM 30.7550 -88.3256 75° East 253 291 2,700 -1,800 Descending Houston Center
02:00PM 30.7353 -88.2803 117° Southeast 195 224 1,300 -1,140 Descending Houston Center
02:01PM 30.7039 -88.2553 146° Southeast 158 182 400 -900 Descending Houston Center
02:03PM 30.6914 -88.2428 80° East  Level Estimated